sensor_id;sensor_type;location;lat;lon;timestamp;temperature;humidity
46231;DHT22;31949;51.404;-0.038;2023-11-19T00:00:09;12.60;99.90
46231;DHT22;31949;51.404;-0.038;2023-11-19T00:02:39;12.60;99.90
46231;DHT22;31949;51.404;-0.038;2023-11-19T00:05:07;12.60;99.90
46231;DHT22;31949;51.404;-0.038;2023-11-19T00:07:36;12.50;99.90
46231;DHT22;31949;51.404;-0.038;2023-11-19T00:10:04;12.50;99.90
46231;DHT22;31949;51.404;-0.038;2023-11-19T00:12:34;12.50;99.90
46231;DHT22;31949;51.404;-0.038;2023-11-19T00:15:01;12.50;99.90
46231;DHT22;31949;51.404;-0.038;2023-11-19T00:17:28;12.50;99.90
46231;DHT22;31949;51.404;-0.038;2023-11-19T00:19:55;12.50;99.90
46231;DHT22;31949;51.404;-0.038;2023-11-19T00:22:23;12.50;99.90
46231;DHT22;31949;51.404;-0.038;2023-11-19T00:24:50;12.40;99.90
46231;DHT22;31949;51.404;-0.038;2023-11-19T00:27:17;12.40;99.90
46231;DHT22;31949;51.404;-0.038;2023-11-19T00:29:44;12.40;99.90
46231;DHT22;31949;51.404;-0.038;2023-11-19T00:32:12;12.40;99.90
46231;DHT22;31949;51.404;-0.038;2023-11-19T00:34:39;12.30;99.90
46231;DHT22;31949;51.404;-0.038;2023-11-19T00:37:06;12.40;99.90
46231;DHT22;31949;51.404;-0.038;2023-11-19T00:39:34;12.40;99.90
46231;DHT22;31949;51.404;-0.038;2023-11-19T00:42:01;12.30;99.90
46231;DHT22;31949;51.404;-0.038;2023-11-19T00:44:28;12.30;99.90
46231;DHT22;31949;51.404;-0.038;2023-11-19T00:46:55;12.30;99.90
46231;DHT22;31949;51.404;-0.038;2023-11-19T00:49:22;12.30;99.90
46231;DHT22;31949;51.404;-0.038;2023-11-19T00:51:49;12.20;99.90
46231;DHT22;31949;51.404;-0.038;2023-11-19T00:54:18;12.20;99.90
46231;DHT22;31949;51.404;-0.038;2023-11-19T00:56:46;12.20;99.90
46231;DHT22;31949;51.404;-0.038;2023-11-19T00:59:13;12.20;99.90
46231;DHT22;31949;51.404;-0.038;2023-11-19T01:01:41;12.10;99.90
46231;DHT22;31949;51.404;-0.038;2023-11-19T01:04:08;12.10;99.90
46231;DHT22;31949;51.404;-0.038;2023-11-19T01:06:36;12.10;99.90
46231;DHT22;31949;51.404;-0.038;2023-11-19T01:09:14;12.10;99.90
46231;DHT22;31949;51.404;-0.038;2023-11-19T01:11:41;12.00;99.90
46231;DHT22;31949;51.404;-0.038;2023-11-19T01:14:09;12.00;99.90
46231;DHT22;31949;51.404;-0.038;2023-11-19T01:16:36;12.00;99.90
46231;DHT22;31949;51.404;-0.038;2023-11-19T01:19:03;12.00;99.90
46231;DHT22;31949;51.404;-0.038;2023-11-19T01:21:43;12.00;99.90
46231;DHT22;31949;51.404;-0.038;2023-11-19T01:24:10;12.00;99.90
46231;DHT22;31949;51.404;-0.038;2023-11-19T01:26:40;12.00;99.90
46231;DHT22;31949;51.404;-0.038;2023-11-19T01:29:14;12.00;99.90
46231;DHT22;31949;51.404;-0.038;2023-11-19T01:31:43;12.00;99.90
46231;DHT22;31949;51.404;-0.038;2023-11-19T01:34:10;12.00;99.90
46231;DHT22;31949;51.404;-0.038;2023-11-19T01:36:38;12.00;99.90
46231;DHT22;31949;51.404;-0.038;2023-11-19T01:39:06;11.90;99.90
46231;DHT22;31949;51.404;-0.038;2023-11-19T01:41:34;12.00;99.90
46231;DHT22;31949;51.404;-0.038;2023-11-19T01:44:03;12.00;99.90
46231;DHT22;31949;51.404;-0.038;2023-11-19T01:46:30;12.00;99.90
46231;DHT22;31949;51.404;-0.038;2023-11-19T01:49:00;12.00;99.90
46231;DHT22;31949;51.404;-0.038;2023-11-19T01:51:27;12.00;99.90
46231;DHT22;31949;51.404;-0.038;2023-11-19T01:53:57;12.00;99.90
46231;DHT22;31949;51.404;-0.038;2023-11-19T01:56:26;12.00;99.90
46231;DHT22;31949;51.404;-0.038;2023-11-19T01:58:55;12.00;99.90
46231;DHT22;31949;51.404;-0.038;2023-11-19T02:01:23;12.00;99.90
46231;DHT22;31949;51.404;-0.038;2023-11-19T02:03:51;12.00;99.90
46231;DHT22;31949;51.404;-0.038;2023-11-19T02:06:19;12.00;99.90
46231;DHT22;31949;51.404;-0.038;2023-11-19T02:08:47;12.00;99.90
46231;DHT22;31949;51.404;-0.038;2023-11-19T02:11:14;12.00;99.90
46231;DHT22;31949;51.404;-0.038;2023-11-19T02:13:41;11.90;99.90
46231;DHT22;31949;51.404;-0.038;2023-11-19T02:16:08;12.00;99.90
46231;DHT22;31949;51.404;-0.038;2023-11-19T02:18:38;12.00;99.90
46231;DHT22;31949;51.404;-0.038;2023-11-19T02:21:06;12.00;99.90
46231;DHT22;31949;51.404;-0.038;2023-11-19T02:23:33;12.00;99.90
46231;DHT22;31949;51.404;-0.038;2023-11-19T02:26:14;11.90;99.90
46231;DHT22;31949;51.404;-0.038;2023-11-19T02:28:43;11.90;99.90
46231;DHT22;31949;51.404;-0.038;2023-11-19T02:31:11;11.80;99.90
46231;DHT22;31949;51.404;-0.038;2023-11-19T02:33:39;11.90;99.90
46231;DHT22;31949;51.404;-0.038;2023-11-19T02:36:07;11.90;99.90
46231;DHT22;31949;51.404;-0.038;2023-11-19T02:38:35;11.90;99.90
46231;DHT22;31949;51.404;-0.038;2023-11-19T02:41:03;11.90;99.90
46231;DHT22;31949;51.404;-0.038;2023-11-19T02:43:33;12.00;99.90
46231;DHT22;31949;51.404;-0.038;2023-11-19T02:46:04;12.00;99.90
46231;DHT22;31949;51.404;-0.038;2023-11-19T02:48:37;12.00;99.90
46231;DHT22;31949;51.404;-0.038;2023-11-19T02:51:06;11.90;99.90
46231;DHT22;31949;51.404;-0.038;2023-11-19T02:53:37;11.90;99.90
46231;DHT22;31949;51.404;-0.038;2023-11-19T02:56:07;11.90;99.90
46231;DHT22;31949;51.404;-0.038;2023-11-19T02:58:52;12.00;99.90
46231;DHT22;31949;51.404;-0.038;2023-11-19T03:01:24;12.00;99.90
46231;DHT22;31949;51.404;-0.038;2023-11-19T03:03:58;11.90;99.90
46231;DHT22;31949;51.404;-0.038;2023-11-19T03:06:26;12.00;99.90
46231;DHT22;31949;51.404;-0.038;2023-11-19T03:08:55;12.00;99.90
46231;DHT22;31949;51.404;-0.038;2023-11-19T03:11:22;12.00;99.90
46231;DHT22;31949;51.404;-0.038;2023-11-19T03:13:50;12.00;99.90
46231;DHT22;31949;51.404;-0.038;2023-11-19T03:16:17;12.00;99.90
46231;DHT22;31949;51.404;-0.038;2023-11-19T03:18:44;12.00;99.90
46231;DHT22;31949;51.404;-0.038;2023-11-19T03:21:11;12.00;99.90
46231;DHT22;31949;51.404;-0.038;2023-11-19T03:23:39;12.00;99.90
46231;DHT22;31949;51.404;-0.038;2023-11-19T03:26:07;12.00;99.90
46231;DHT22;31949;51.404;-0.038;2023-11-19T03:28:36;12.10;99.90
46231;DHT22;31949;51.404;-0.038;2023-11-19T03:31:06;12.10;99.90
46231;DHT22;31949;51.404;-0.038;2023-11-19T03:33:36;12.00;99.90
46231;DHT22;31949;51.404;-0.038;2023-11-19T03:36:05;12.00;99.90
46231;DHT22;31949;51.404;-0.038;2023-11-19T03:38:32;12.00;99.90
46231;DHT22;31949;51.404;-0.038;2023-11-19T03:41:00;12.00;99.90
46231;DHT22;31949;51.404;-0.038;2023-11-19T03:43:27;12.10;99.90
46231;DHT22;31949;51.404;-0.038;2023-11-19T03:45:54;12.10;99.90
46231;DHT22;31949;51.404;-0.038;2023-11-19T03:48:22;12.10;99.90
46231;DHT22;31949;51.404;-0.038;2023-11-19T03:50:49;12.10;99.90
46231;DHT22;31949;51.404;-0.038;2023-11-19T03:53:16;12.00;99.90
46231;DHT22;31949;51.404;-0.038;2023-11-19T03:55:45;12.10;99.90
46231;DHT22;31949;51.404;-0.038;2023-11-19T03:58:12;12.00;99.90
46231;DHT22;31949;51.404;-0.038;2023-11-19T04:00:40;12.00;99.90
46231;DHT22;31949;51.404;-0.038;2023-11-19T04:03:07;12.00;99.90
46231;DHT22;31949;51.404;-0.038;2023-11-19T04:05:35;12.10;99.90
46231;DHT22;31949;51.404;-0.038;2023-11-19T04:08:02;12.10;99.90
46231;DHT22;31949;51.404;-0.038;2023-11-19T04:10:29;12.10;99.90
46231;DHT22;31949;51.404;-0.038;2023-11-19T04:12:56;12.00;99.90
46231;DHT22;31949;51.404;-0.038;2023-11-19T04:15:23;12.00;99.90
46231;DHT22;31949;51.404;-0.038;2023-11-19T04:17:51;12.00;99.90
46231;DHT22;31949;51.404;-0.038;2023-11-19T04:20:18;12.00;99.90
46231;DHT22;31949;51.404;-0.038;2023-11-19T04:22:46;12.10;99.90
46231;DHT22;31949;51.404;-0.038;2023-11-19T04:25:13;12.10;99.90
46231;DHT22;31949;51.404;-0.038;2023-11-19T04:27:42;12.10;99.90
46231;DHT22;31949;51.404;-0.038;2023-11-19T04:30:09;12.10;99.90
46231;DHT22;31949;51.404;-0.038;2023-11-19T04:32:38;12.10;99.90
46231;DHT22;31949;51.404;-0.038;2023-11-19T04:35:06;12.10;99.90
46231;DHT22;31949;51.404;-0.038;2023-11-19T04:37:34;12.10;99.90
46231;DHT22;31949;51.404;-0.038;2023-11-19T04:40:02;12.10;99.90
46231;DHT22;31949;51.404;-0.038;2023-11-19T04:42:30;12.10;99.90
46231;DHT22;31949;51.404;-0.038;2023-11-19T04:44:59;12.10;99.90
46231;DHT22;31949;51.404;-0.038;2023-11-19T04:47:26;12.10;99.90
46231;DHT22;31949;51.404;-0.038;2023-11-19T04:49:53;12.10;99.90
46231;DHT22;31949;51.404;-0.038;2023-11-19T04:52:20;12.10;99.90
46231;DHT22;31949;51.404;-0.038;2023-11-19T04:54:47;12.10;99.90
46231;DHT22;31949;51.404;-0.038;2023-11-19T04:57:15;12.10;99.90
46231;DHT22;31949;51.404;-0.038;2023-11-19T04:59:42;12.10;99.90
46231;DHT22;31949;51.404;-0.038;2023-11-19T05:02:09;12.00;99.90
46231;DHT22;31949;51.404;-0.038;2023-11-19T05:04:37;12.10;99.90
46231;DHT22;31949;51.404;-0.038;2023-11-19T05:07:07;12.00;99.90
46231;DHT22;31949;51.404;-0.038;2023-11-19T05:09:34;12.00;99.90
46231;DHT22;31949;51.404;-0.038;2023-11-19T05:12:02;12.00;99.90
46231;DHT22;31949;51.404;-0.038;2023-11-19T05:14:29;12.00;99.90
46231;DHT22;31949;51.404;-0.038;2023-11-19T05:16:56;12.10;99.90
46231;DHT22;31949;51.404;-0.038;2023-11-19T05:19:24;12.00;99.90
46231;DHT22;31949;51.404;-0.038;2023-11-19T05:21:51;12.00;99.90
46231;DHT22;31949;51.404;-0.038;2023-11-19T05:24:19;12.00;99.90
46231;DHT22;31949;51.404;-0.038;2023-11-19T05:26:46;12.00;99.90
46231;DHT22;31949;51.404;-0.038;2023-11-19T05:29:14;12.00;99.90
46231;DHT22;31949;51.404;-0.038;2023-11-19T05:31:41;12.00;99.90
46231;DHT22;31949;51.404;-0.038;2023-11-19T05:34:11;12.00;99.90
46231;DHT22;31949;51.404;-0.038;2023-11-19T05:36:38;12.00;99.90
46231;DHT22;31949;51.404;-0.038;2023-11-19T05:39:06;11.90;99.90
46231;DHT22;31949;51.404;-0.038;2023-11-19T05:41:33;11.90;99.90
46231;DHT22;31949;51.404;-0.038;2023-11-19T05:44:01;12.00;99.90
46231;DHT22;31949;51.404;-0.038;2023-11-19T05:46:28;12.00;99.90
46231;DHT22;31949;51.404;-0.038;2023-11-19T05:48:56;12.10;99.90
46231;DHT22;31949;51.404;-0.038;2023-11-19T05:51:23;12.10;99.90
46231;DHT22;31949;51.404;-0.038;2023-11-19T05:53:52;12.10;99.90
46231;DHT22;31949;51.404;-0.038;2023-11-19T05:56:19;12.10;99.90
46231;DHT22;31949;51.404;-0.038;2023-11-19T05:58:49;12.20;99.90
46231;DHT22;31949;51.404;-0.038;2023-11-19T06:01:16;12.20;99.90
46231;DHT22;31949;51.404;-0.038;2023-11-19T06:03:44;12.20;99.90
46231;DHT22;31949;51.404;-0.038;2023-11-19T06:06:16;12.20;99.90
46231;DHT22;31949;51.404;-0.038;2023-11-19T06:08:44;12.20;99.90
46231;DHT22;31949;51.404;-0.038;2023-11-19T06:11:12;12.20;99.90
46231;DHT22;31949;51.404;-0.038;2023-11-19T06:13:41;12.20;99.90
46231;DHT22;31949;51.404;-0.038;2023-11-19T06:16:10;12.30;99.90
46231;DHT22;31949;51.404;-0.038;2023-11-19T06:18:37;12.30;99.90
46231;DHT22;31949;51.404;-0.038;2023-11-19T06:21:05;12.20;99.90
46231;DHT22;31949;51.404;-0.038;2023-11-19T06:23:33;12.20;99.90
46231;DHT22;31949;51.404;-0.038;2023-11-19T06:26:00;12.20;99.90
46231;DHT22;31949;51.404;-0.038;2023-11-19T06:28:27;12.30;99.90
46231;DHT22;31949;51.404;-0.038;2023-11-19T06:30:54;12.20;99.90
46231;DHT22;31949;51.404;-0.038;2023-11-19T06:33:21;12.30;99.90
46231;DHT22;31949;51.404;-0.038;2023-11-19T06:35:49;12.20;99.90
46231;DHT22;31949;51.404;-0.038;2023-11-19T06:38:16;12.20;99.90
46231;DHT22;31949;51.404;-0.038;2023-11-19T06:40:43;12.30;99.90
46231;DHT22;31949;51.404;-0.038;2023-11-19T06:43:10;12.20;99.90
46231;DHT22;31949;51.404;-0.038;2023-11-19T06:45:38;12.10;99.90
46231;DHT22;31949;51.404;-0.038;2023-11-19T06:48:05;12.10;99.90
46231;DHT22;31949;51.404;-0.038;2023-11-19T06:50:33;12.10;99.90
46231;DHT22;31949;51.404;-0.038;2023-11-19T06:53:00;12.10;99.90
46231;DHT22;31949;51.404;-0.038;2023-11-19T06:55:28;12.10;99.90
46231;DHT22;31949;51.404;-0.038;2023-11-19T06:57:55;12.10;99.90
46231;DHT22;31949;51.404;-0.038;2023-11-19T07:00:22;12.00;99.90
46231;DHT22;31949;51.404;-0.038;2023-11-19T07:02:49;12.00;99.90
46231;DHT22;31949;51.404;-0.038;2023-11-19T07:05:18;12.00;99.90
46231;DHT22;31949;51.404;-0.038;2023-11-19T07:07:45;11.90;99.90
46231;DHT22;31949;51.404;-0.038;2023-11-19T07:10:14;11.90;99.90
46231;DHT22;31949;51.404;-0.038;2023-11-19T07:12:41;11.90;99.90
46231;DHT22;31949;51.404;-0.038;2023-11-19T07:15:09;11.90;99.90
46231;DHT22;31949;51.404;-0.038;2023-11-19T07:17:36;11.90;99.90
46231;DHT22;31949;51.404;-0.038;2023-11-19T07:20:04;11.90;99.90
46231;DHT22;31949;51.404;-0.038;2023-11-19T07:22:32;11.90;99.90
46231;DHT22;31949;51.404;-0.038;2023-11-19T07:24:59;11.90;99.90
46231;DHT22;31949;51.404;-0.038;2023-11-19T07:27:26;11.90;99.90
46231;DHT22;31949;51.404;-0.038;2023-11-19T07:29:54;11.90;99.90
46231;DHT22;31949;51.404;-0.038;2023-11-19T07:32:21;11.90;99.90
46231;DHT22;31949;51.404;-0.038;2023-11-19T07:34:49;11.90;99.90
46231;DHT22;31949;51.404;-0.038;2023-11-19T07:37:16;11.90;99.90
46231;DHT22;31949;51.404;-0.038;2023-11-19T07:39:44;12.00;99.90
46231;DHT22;31949;51.404;-0.038;2023-11-19T07:42:11;12.00;99.90
46231;DHT22;31949;51.404;-0.038;2023-11-19T07:44:38;11.90;99.90
46231;DHT22;31949;51.404;-0.038;2023-11-19T07:47:05;12.00;99.90
46231;DHT22;31949;51.404;-0.038;2023-11-19T07:49:32;12.00;99.90
46231;DHT22;31949;51.404;-0.038;2023-11-19T07:52:00;12.00;99.90
46231;DHT22;31949;51.404;-0.038;2023-11-19T07:54:27;12.00;99.90
46231;DHT22;31949;51.404;-0.038;2023-11-19T07:56:54;12.10;99.90
46231;DHT22;31949;51.404;-0.038;2023-11-19T07:59:22;12.10;99.90
46231;DHT22;31949;51.404;-0.038;2023-11-19T08:01:49;12.10;99.90
46231;DHT22;31949;51.404;-0.038;2023-11-19T08:04:16;12.10;99.90
46231;DHT22;31949;51.404;-0.038;2023-11-19T08:06:44;12.10;99.90
46231;DHT22;31949;51.404;-0.038;2023-11-19T08:09:12;12.20;99.90
46231;DHT22;31949;51.404;-0.038;2023-11-19T08:11:41;12.20;99.90
46231;DHT22;31949;51.404;-0.038;2023-11-19T08:14:09;12.20;99.90
46231;DHT22;31949;51.404;-0.038;2023-11-19T08:16:36;12.20;99.90
46231;DHT22;31949;51.404;-0.038;2023-11-19T08:19:04;12.20;99.90
46231;DHT22;31949;51.404;-0.038;2023-11-19T08:21:32;12.30;99.90
46231;DHT22;31949;51.404;-0.038;2023-11-19T08:23:59;12.40;99.90
46231;DHT22;31949;51.404;-0.038;2023-11-19T08:26:26;12.40;99.90
46231;DHT22;31949;51.404;-0.038;2023-11-19T08:28:54;12.50;99.90
46231;DHT22;31949;51.404;-0.038;2023-11-19T08:31:21;12.50;99.90
46231;DHT22;31949;51.404;-0.038;2023-11-19T08:33:48;12.50;99.90
46231;DHT22;31949;51.404;-0.038;2023-11-19T08:36:16;12.50;99.90
46231;DHT22;31949;51.404;-0.038;2023-11-19T08:38:46;12.60;99.90
46231;DHT22;31949;51.404;-0.038;2023-11-19T08:41:16;12.60;99.90
46231;DHT22;31949;51.404;-0.038;2023-11-19T08:43:45;12.60;99.90
46231;DHT22;31949;51.404;-0.038;2023-11-19T08:46:13;12.60;99.90
46231;DHT22;31949;51.404;-0.038;2023-11-19T08:48:40;12.60;99.90
46231;DHT22;31949;51.404;-0.038;2023-11-19T08:51:08;12.60;99.90
46231;DHT22;31949;51.404;-0.038;2023-11-19T08:53:35;12.60;99.90
46231;DHT22;31949;51.404;-0.038;2023-11-19T08:56:02;12.70;99.90
46231;DHT22;31949;51.404;-0.038;2023-11-19T08:58:30;12.70;99.90
46231;DHT22;31949;51.404;-0.038;2023-11-19T09:00:58;12.70;99.90
46231;DHT22;31949;51.404;-0.038;2023-11-19T09:03:26;12.80;99.90
46231;DHT22;31949;51.404;-0.038;2023-11-19T09:05:53;12.90;99.90
46231;DHT22;31949;51.404;-0.038;2023-11-19T09:08:21;12.90;99.90
46231;DHT22;31949;51.404;-0.038;2023-11-19T09:10:48;13.00;99.90
46231;DHT22;31949;51.404;-0.038;2023-11-19T09:13:15;13.10;99.90
46231;DHT22;31949;51.404;-0.038;2023-11-19T09:15:43;13.10;99.90
46231;DHT22;31949;51.404;-0.038;2023-11-19T09:18:10;13.10;99.90
46231;DHT22;31949;51.404;-0.038;2023-11-19T09:20:37;13.10;99.90
46231;DHT22;31949;51.404;-0.038;2023-11-19T09:23:06;13.20;99.90
46231;DHT22;31949;51.404;-0.038;2023-11-19T09:25:35;13.20;99.90
46231;DHT22;31949;51.404;-0.038;2023-11-19T09:28:05;13.20;99.90
46231;DHT22;31949;51.404;-0.038;2023-11-19T09:30:32;13.20;99.90
46231;DHT22;31949;51.404;-0.038;2023-11-19T09:33:01;13.30;99.90
46231;DHT22;31949;51.404;-0.038;2023-11-19T09:35:29;13.40;99.90
46231;DHT22;31949;51.404;-0.038;2023-11-19T09:37:56;13.50;99.90
46231;DHT22;31949;51.404;-0.038;2023-11-19T09:40:23;13.60;99.90
46231;DHT22;31949;51.404;-0.038;2023-11-19T09:42:50;13.70;99.90
46231;DHT22;31949;51.404;-0.038;2023-11-19T09:45:21;13.70;99.90
46231;DHT22;31949;51.404;-0.038;2023-11-19T09:47:51;13.70;99.90
46231;DHT22;31949;51.404;-0.038;2023-11-19T09:50:20;13.70;99.90
46231;DHT22;31949;51.404;-0.038;2023-11-19T09:52:48;13.70;99.90
46231;DHT22;31949;51.404;-0.038;2023-11-19T09:55:15;13.80;99.90
46231;DHT22;31949;51.404;-0.038;2023-11-19T09:57:43;13.80;99.90
46231;DHT22;31949;51.404;-0.038;2023-11-19T10:00:13;13.80;99.90
46231;DHT22;31949;51.404;-0.038;2023-11-19T10:02:43;13.80;99.90
46231;DHT22;31949;51.404;-0.038;2023-11-19T10:05:14;13.90;99.90
46231;DHT22;31949;51.404;-0.038;2023-11-19T10:07:42;14.00;99.90
46231;DHT22;31949;51.404;-0.038;2023-11-19T10:10:12;14.00;99.90
46231;DHT22;31949;51.404;-0.038;2023-11-19T10:12:46;14.00;99.90
46231;DHT22;31949;51.404;-0.038;2023-11-19T10:15:24;13.90;99.90
46231;DHT22;31949;51.404;-0.038;2023-11-19T10:17:58;13.90;99.90
46231;DHT22;31949;51.404;-0.038;2023-11-19T10:20:25;13.90;99.90
46231;DHT22;31949;51.404;-0.038;2023-11-19T10:22:56;13.90;99.90
46231;DHT22;31949;51.404;-0.038;2023-11-19T10:25:27;14.00;99.90
46231;DHT22;31949;51.404;-0.038;2023-11-19T10:27:56;14.00;99.90
46231;DHT22;31949;51.404;-0.038;2023-11-19T10:30:25;14.00;99.90
46231;DHT22;31949;51.404;-0.038;2023-11-19T10:33:13;14.00;99.90
46231;DHT22;31949;51.404;-0.038;2023-11-19T10:35:55;14.10;99.90
46231;DHT22;31949;51.404;-0.038;2023-11-19T10:38:29;14.10;99.90
46231;DHT22;31949;51.404;-0.038;2023-11-19T10:40:57;14.10;99.90
46231;DHT22;31949;51.404;-0.038;2023-11-19T10:43:26;14.20;99.90
46231;DHT22;31949;51.404;-0.038;2023-11-19T10:46:09;14.30;99.90
46231;DHT22;31949;51.404;-0.038;2023-11-19T10:48:37;14.30;99.90
46231;DHT22;31949;51.404;-0.038;2023-11-19T10:51:05;14.40;99.90
46231;DHT22;31949;51.404;-0.038;2023-11-19T10:53:38;14.50;99.90
46231;DHT22;31949;51.404;-0.038;2023-11-19T10:56:10;14.50;99.90
46231;DHT22;31949;51.404;-0.038;2023-11-19T10:58:42;14.60;99.90
46231;DHT22;31949;51.404;-0.038;2023-11-19T11:01:43;14.70;99.90
46231;DHT22;31949;51.404;-0.038;2023-11-19T11:04:14;14.90;99.90
46231;DHT22;31949;51.404;-0.038;2023-11-19T11:06:43;14.90;99.90
46231;DHT22;31949;51.404;-0.038;2023-11-19T11:09:11;15.00;99.90
46231;DHT22;31949;51.404;-0.038;2023-11-19T11:11:40;15.00;99.90
46231;DHT22;31949;51.404;-0.038;2023-11-19T11:14:12;14.90;99.90
46231;DHT22;31949;51.404;-0.038;2023-11-19T11:16:43;14.80;99.90
46231;DHT22;31949;51.404;-0.038;2023-11-19T11:19:11;14.80;99.90
46231;DHT22;31949;51.404;-0.038;2023-11-19T11:21:42;14.70;99.90
46231;DHT22;31949;51.404;-0.038;2023-11-19T11:38:04;14.50;99.90
46231;DHT22;31949;51.404;-0.038;2023-11-19T11:40:34;14.40;99.90
46231;DHT22;31949;51.404;-0.038;2023-11-19T11:43:02;14.40;99.90
46231;DHT22;31949;51.404;-0.038;2023-11-19T11:45:37;14.40;99.90
46231;DHT22;31949;51.404;-0.038;2023-11-19T11:48:14;14.40;99.90
46231;DHT22;31949;51.404;-0.038;2023-11-19T11:50:53;14.40;99.90
46231;DHT22;31949;51.404;-0.038;2023-11-19T11:53:22;14.40;99.90
46231;DHT22;31949;51.404;-0.038;2023-11-19T11:55:52;14.40;99.90
46231;DHT22;31949;51.404;-0.038;2023-11-19T11:58:27;14.40;99.90
46231;DHT22;31949;51.404;-0.038;2023-11-19T12:00:54;14.40;99.90
46231;DHT22;31949;51.404;-0.038;2023-11-19T12:03:26;14.40;99.90
46231;DHT22;31949;51.404;-0.038;2023-11-19T12:05:53;14.50;99.90
46231;DHT22;31949;51.404;-0.038;2023-11-19T12:08:25;14.50;99.90
46231;DHT22;31949;51.404;-0.038;2023-11-19T12:10:53;14.40;99.90
46231;DHT22;31949;51.404;-0.038;2023-11-19T12:13:21;14.40;99.90
46231;DHT22;31949;51.404;-0.038;2023-11-19T12:18:27;14.40;99.90
46231;DHT22;31949;51.404;-0.038;2023-11-19T12:20:55;14.40;99.90
46231;DHT22;31949;51.404;-0.038;2023-11-19T12:23:23;14.50;99.90
46231;DHT22;31949;51.404;-0.038;2023-11-19T12:25:51;14.60;99.90
46231;DHT22;31949;51.404;-0.038;2023-11-19T12:28:18;14.50;99.90
46231;DHT22;31949;51.404;-0.038;2023-11-19T12:30:46;14.50;99.90
46231;DHT22;31949;51.404;-0.038;2023-11-19T12:33:14;14.50;99.90
46231;DHT22;31949;51.404;-0.038;2023-11-19T12:35:43;14.50;99.90
46231;DHT22;31949;51.404;-0.038;2023-11-19T12:38:23;14.50;99.90
46231;DHT22;31949;51.404;-0.038;2023-11-19T12:41:11;14.50;99.90
46231;DHT22;31949;51.404;-0.038;2023-11-19T12:43:39;14.50;99.90
46231;DHT22;31949;51.404;-0.038;2023-11-19T12:46:22;14.50;99.90
46231;DHT22;31949;51.404;-0.038;2023-11-19T12:48:51;14.50;99.90
46231;DHT22;31949;51.404;-0.038;2023-11-19T12:51:19;14.50;99.90
46231;DHT22;31949;51.404;-0.038;2023-11-19T12:53:48;14.60;99.90
46231;DHT22;31949;51.404;-0.038;2023-11-19T12:56:17;14.50;99.90
46231;DHT22;31949;51.404;-0.038;2023-11-19T12:58:44;14.50;99.90
46231;DHT22;31949;51.404;-0.038;2023-11-19T13:01:18;14.50;99.90
46231;DHT22;31949;51.404;-0.038;2023-11-19T13:03:48;14.60;99.90
46231;DHT22;31949;51.404;-0.038;2023-11-19T13:06:16;14.60;99.90
46231;DHT22;31949;51.404;-0.038;2023-11-19T13:08:49;14.60;99.90
46231;DHT22;31949;51.404;-0.038;2023-11-19T13:11:35;14.60;99.90
46231;DHT22;31949;51.404;-0.038;2023-11-19T13:14:04;14.70;99.90
46231;DHT22;31949;51.404;-0.038;2023-11-19T13:16:32;14.60;99.90
46231;DHT22;31949;51.404;-0.038;2023-11-19T13:19:00;14.60;99.90
46231;DHT22;31949;51.404;-0.038;2023-11-19T13:21:28;14.80;99.90
46231;DHT22;31949;51.404;-0.038;2023-11-19T13:23:57;14.60;99.90
46231;DHT22;31949;51.404;-0.038;2023-11-19T13:26:24;14.60;99.90
46231;DHT22;31949;51.404;-0.038;2023-11-19T13:28:51;14.60;99.90
46231;DHT22;31949;51.404;-0.038;2023-11-19T13:31:18;14.60;99.90
46231;DHT22;31949;51.404;-0.038;2023-11-19T13:33:46;14.60;99.90
46231;DHT22;31949;51.404;-0.038;2023-11-19T13:36:13;14.60;99.90
46231;DHT22;31949;51.404;-0.038;2023-11-19T13:38:43;14.60;99.90
46231;DHT22;31949;51.404;-0.038;2023-11-19T13:41:14;14.60;99.90
46231;DHT22;31949;51.404;-0.038;2023-11-19T13:43:41;14.60;99.90
46231;DHT22;31949;51.404;-0.038;2023-11-19T13:46:08;14.60;99.90
46231;DHT22;31949;51.404;-0.038;2023-11-19T13:48:38;14.50;99.90
46231;DHT22;31949;51.404;-0.038;2023-11-19T13:51:05;14.60;99.90
46231;DHT22;31949;51.404;-0.038;2023-11-19T13:53:33;14.60;99.90
46231;DHT22;31949;51.404;-0.038;2023-11-19T13:56:18;14.60;99.90
46231;DHT22;31949;51.404;-0.038;2023-11-19T13:58:45;14.60;99.90
46231;DHT22;31949;51.404;-0.038;2023-11-19T14:01:12;14.50;99.90
46231;DHT22;31949;51.404;-0.038;2023-11-19T14:03:40;14.40;99.90
46231;DHT22;31949;51.404;-0.038;2023-11-19T14:06:09;14.40;99.90
46231;DHT22;31949;51.404;-0.038;2023-11-19T14:08:36;14.40;99.90
46231;DHT22;31949;51.404;-0.038;2023-11-19T14:11:05;14.40;99.90
46231;DHT22;31949;51.404;-0.038;2023-11-19T14:13:32;14.40;99.90
46231;DHT22;31949;51.404;-0.038;2023-11-19T14:15:59;14.40;99.90
46231;DHT22;31949;51.404;-0.038;2023-11-19T14:18:28;14.50;99.90
46231;DHT22;31949;51.404;-0.038;2023-11-19T14:20:55;14.50;99.90
46231;DHT22;31949;51.404;-0.038;2023-11-19T14:23:22;14.50;99.90
46231;DHT22;31949;51.404;-0.038;2023-11-19T14:25:51;14.50;99.90
46231;DHT22;31949;51.404;-0.038;2023-11-19T14:28:18;14.50;99.90
46231;DHT22;31949;51.404;-0.038;2023-11-19T14:30:46;14.60;99.90
46231;DHT22;31949;51.404;-0.038;2023-11-19T14:33:15;14.60;99.90
46231;DHT22;31949;51.404;-0.038;2023-11-19T14:35:42;14.50;99.90
46231;DHT22;31949;51.404;-0.038;2023-11-19T14:38:09;14.50;99.90
46231;DHT22;31949;51.404;-0.038;2023-11-19T14:40:37;14.50;99.90
46231;DHT22;31949;51.404;-0.038;2023-11-19T14:43:07;14.50;99.90
46231;DHT22;31949;51.404;-0.038;2023-11-19T14:45:37;14.50;99.90
46231;DHT22;31949;51.404;-0.038;2023-11-19T14:48:15;14.50;99.90
46231;DHT22;31949;51.404;-0.038;2023-11-19T14:50:44;14.40;99.90
46231;DHT22;31949;51.404;-0.038;2023-11-19T14:53:11;14.40;99.90
46231;DHT22;31949;51.404;-0.038;2023-11-19T14:55:39;14.40;99.90
46231;DHT22;31949;51.404;-0.038;2023-11-19T14:58:06;14.40;99.90
46231;DHT22;31949;51.404;-0.038;2023-11-19T15:00:38;14.40;99.90
46231;DHT22;31949;51.404;-0.038;2023-11-19T15:03:05;14.40;99.90
46231;DHT22;31949;51.404;-0.038;2023-11-19T15:05:33;14.40;99.90
46231;DHT22;31949;51.404;-0.038;2023-11-19T15:08:01;14.40;99.90
46231;DHT22;31949;51.404;-0.038;2023-11-19T15:10:30;14.30;99.90
46231;DHT22;31949;51.404;-0.038;2023-11-19T15:12:57;14.30;99.90
46231;DHT22;31949;51.404;-0.038;2023-11-19T15:15:25;14.30;99.90
46231;DHT22;31949;51.404;-0.038;2023-11-19T15:17:55;14.30;99.90
46231;DHT22;31949;51.404;-0.038;2023-11-19T15:20:22;14.20;99.90
46231;DHT22;31949;51.404;-0.038;2023-11-19T15:22:50;14.20;99.90
46231;DHT22;31949;51.404;-0.038;2023-11-19T15:25:17;14.20;99.90
46231;DHT22;31949;51.404;-0.038;2023-11-19T15:27:48;14.20;99.90
46231;DHT22;31949;51.404;-0.038;2023-11-19T15:30:15;14.20;99.90
46231;DHT22;31949;51.404;-0.038;2023-11-19T15:32:43;14.10;99.90
46231;DHT22;31949;51.404;-0.038;2023-11-19T15:35:10;14.10;99.90
46231;DHT22;31949;51.404;-0.038;2023-11-19T15:37:40;14.10;99.90
46231;DHT22;31949;51.404;-0.038;2023-11-19T15:40:11;14.10;99.90